createdAt,value
2024-02-14T00:00:22.496Z,18.23
2024-02-14T00:05:47.055Z,18.45
2024-02-14T00:11:09.553Z,17.90
2024-02-14T00:16:32.536Z,19.77
2024-02-14T00:21:56.753Z,18.90
2024-02-14T00:27:19.658Z,19.52
2024-02-14T00:32:42.399Z,18.77
2024-02-14T00:38:06.448Z,17.98
2024-02-14T00:43:29.291Z,20.92
2024-02-14T00:48:51.775Z,20.42
2024-02-14T00:54:15.984Z,21.95
2024-02-14T00:59:38.514Z,21.38
2024-02-14T01:05:00.870Z,21.05
2024-02-14T01:10:24.706Z,21.75
2024-02-14T01:15:47.099Z,21.15
2024-02-14T01:21:09.635Z,20.63
2024-02-14T01:26:34.525Z,20.77
2024-02-14T01:31:57.533Z,19.95
2024-02-14T01:37:21.984Z,20.48
2024-02-14T01:42:45.936Z,19.98
2024-02-14T01:48:09.032Z,19.70
2024-02-14T01:53:32.274Z,21.60
2024-02-14T01:58:56.116Z,20.63
2024-02-14T02:04:19.257Z,19.80
2024-02-14T02:09:41.878Z,18.77
2024-02-14T02:15:06.258Z,19.88
2024-02-14T02:20:30.097Z,24.90
2024-02-14T02:25:54.320Z,25.67
2024-02-14T02:31:16.910Z,24.73
2024-02-14T02:36:40.384Z,22.20
2024-02-14T02:42:04.739Z,22.77
2024-02-14T02:47:27.262Z,24.23
2024-02-14T02:52:49.801Z,22.67
2024-02-14T02:58:13.709Z,22.13
2024-02-14T03:03:37.349Z,22.45
2024-02-14T03:08:59.532Z,21.85
2024-02-14T03:14:23.786Z,22.10
2024-02-14T03:25:09.897Z,23.83
2024-02-14T03:30:35.241Z,25.70
2024-02-14T03:35:57.818Z,23.17
2024-02-14T03:41:23.723Z,24.20
2024-02-14T03:46:48.737Z,24.23
2024-02-14T03:52:12.774Z,23.98
2024-02-14T03:57:39.711Z,23.38
2024-02-14T04:03:03.975Z,22.88
2024-02-14T04:08:26.655Z,26.58
2024-02-14T04:13:49.175Z,25.92
2024-02-14T04:19:14.504Z,18.60
2024-02-14T04:24:37.658Z,20.38
2024-02-14T04:30:00.561Z,20.95
2024-02-14T04:35:24.862Z,21.48
2024-02-14T04:40:47.522Z,22.17
2024-02-14T04:46:10.064Z,22.52
2024-02-14T04:51:33.760Z,22.60
2024-02-14T04:56:59.295Z,20.80
2024-02-14T05:02:24.684Z,22.30
2024-02-14T05:07:48.807Z,21.27
2024-02-14T05:13:11.977Z,23.10
2024-02-14T05:18:35.385Z,23.63
2024-02-14T05:23:59.529Z,22.25
2024-02-14T05:29:21.876Z,20.67
2024-02-14T05:34:45.097Z,36.97
2024-02-14T05:40:10.193Z,23.38
2024-02-14T05:45:32.701Z,20.67
2024-02-14T05:50:55.148Z,21.20
2024-02-14T05:56:18.967Z,22.55
2024-02-14T06:01:41.314Z,23.90
2024-02-14T06:07:04.008Z,23.15
2024-02-14T06:12:28.094Z,26.77
2024-02-14T06:17:50.721Z,25.80
2024-02-14T06:23:13.915Z,26.77
2024-02-14T06:28:37.608Z,25.38
2024-02-14T06:34:00.335Z,22.30
2024-02-14T06:39:23.009Z,22.05
2024-02-14T06:44:47.167Z,22.08
2024-02-14T06:50:11.752Z,23.48
2024-02-14T06:55:34.424Z,24.17
2024-02-14T07:00:58.065Z,23.02
2024-02-14T07:06:20.897Z,24.17
2024-02-14T07:11:43.693Z,27.75
2024-02-14T07:17:07.849Z,26.05
2024-02-14T07:22:31.679Z,22.20
2024-02-14T07:27:54.382Z,27.65
2024-02-14T07:33:18.124Z,25.20
2024-02-14T07:38:40.545Z,21.38
2024-02-14T07:44:03.591Z,20.67
2024-02-14T07:49:28.119Z,19.95
2024-02-14T07:54:53.990Z,21.17
2024-02-14T08:00:23.519Z,25.70
2024-02-14T08:11:10.087Z,19.90
2024-02-14T08:16:32.445Z,20.13
2024-02-14T08:21:59.176Z,20.55
2024-02-14T08:27:29.677Z,18.25
2024-02-14T08:32:52.922Z,18.75
2024-02-14T08:38:16.040Z,20.27
2024-02-14T08:49:11.552Z,21.23
2024-02-14T08:54:34.980Z,22.27
2024-02-14T09:00:00.957Z,18.05
2024-02-14T09:05:24.166Z,18.52
2024-02-14T09:10:47.161Z,19.30
2024-02-14T09:16:11.318Z,19.48
2024-02-14T09:21:35.348Z,21.40
2024-02-14T09:26:59.021Z,18.25
2024-02-14T09:32:23.355Z,17.15
2024-02-14T09:37:46.233Z,17.30
2024-02-14T09:43:14.593Z,15.88
2024-02-14T09:48:41.571Z,17.17
2024-02-14T09:54:05.454Z,19.85
2024-02-14T09:59:28.508Z,21.38
2024-02-14T10:04:52.077Z,20.75
2024-02-14T10:10:15.065Z,18.75
2024-02-14T10:15:37.784Z,18.30
2024-02-14T10:21:01.567Z,17.80
2024-02-14T10:26:25.567Z,17.77
2024-02-14T10:31:47.879Z,16.70
2024-02-14T10:37:11.951Z,17.52
2024-02-14T10:42:35.251Z,17.40
2024-02-14T10:47:59.055Z,17.85
2024-02-14T10:53:27.609Z,17.67
2024-02-14T10:58:54.609Z,17.05
2024-02-14T11:04:17.931Z,15.23
2024-02-14T11:09:42.601Z,15.63
2024-02-14T11:15:12.531Z,15.45
2024-02-14T11:20:35.563Z,17.98
2024-02-14T11:26:03.803Z,18.05
2024-02-14T11:31:33.302Z,16.97
2024-02-14T11:36:56.023Z,16.17
2024-02-14T11:42:19.853Z,17.73
2024-02-14T11:47:43.026Z,16.58
2024-02-14T11:53:07.434Z,14.52
2024-02-14T11:58:32.627Z,15.57
2024-02-14T12:03:57.137Z,16.08
2024-02-14T12:09:20.154Z,17.05
2024-02-14T12:14:46.666Z,15.50
2024-02-14T12:20:12.560Z,16.63
2024-02-14T12:25:36.318Z,18.98
2024-02-14T12:31:01.206Z,19.15
2024-02-14T12:36:23.865Z,19.80
2024-02-14T12:41:47.233Z,17.60
2024-02-14T12:47:11.613Z,18.70
2024-02-14T12:52:36.017Z,19.42
2024-02-14T12:57:58.622Z,17.80
2024-02-14T13:03:22.775Z,18.50
2024-02-14T13:08:45.324Z,17.98
2024-02-14T13:14:07.916Z,17.35
2024-02-14T13:19:32.198Z,18.52
2024-02-14T13:24:54.651Z,19.13
2024-02-14T13:30:19.931Z,20.88
2024-02-14T13:35:46.022Z,18.30
2024-02-14T13:41:08.683Z,18.08
2024-02-14T13:46:31.179Z,18.80
2024-02-14T13:51:54.902Z,20.08
2024-02-14T13:57:19.998Z,21.13
2024-02-14T14:02:44.867Z,22.35
2024-02-14T14:08:09.246Z,22.85
2024-02-14T14:13:32.165Z,24.40
2024-02-14T14:18:55.223Z,23.30
2024-02-14T14:24:18.684Z,24.50
2024-02-14T14:29:42.414Z,22.20
2024-02-14T14:35:05.233Z,24.33
2024-02-14T14:40:29.263Z,20.63
2024-02-14T14:45:51.913Z,20.02
2024-02-14T14:51:14.412Z,19.33
2024-02-14T14:56:38.561Z,20.48
2024-02-14T15:02:01.152Z,20.05
2024-02-14T15:07:23.948Z,20.13
2024-02-14T15:12:48.120Z,21.58
2024-02-14T15:18:10.985Z,21.98
2024-02-14T15:23:33.397Z,22.75
2024-02-14T15:29:17.978Z,24.98
2024-02-14T15:34:40.514Z,27.45
2024-02-14T15:40:03.041Z,24.80
2024-02-14T15:45:26.845Z,23.55
2024-02-14T15:50:49.898Z,26.00
2024-02-14T15:56:14.783Z,39.97
2024-02-14T16:01:39.417Z,41.13
2024-02-14T16:07:02.043Z,39.20
2024-02-14T16:12:24.810Z,41.63
2024-02-14T16:17:49.598Z,45.30
2024-02-14T16:23:12.062Z,41.22
2024-02-14T16:28:34.730Z,42.75
2024-02-14T16:33:58.843Z,43.33
2024-02-14T16:39:31.091Z,42.88
2024-02-14T16:45:08.400Z,45.33
2024-02-14T16:50:32.560Z,47.10
2024-02-14T16:55:55.989Z,42.50
2024-02-14T17:01:18.781Z,47.22
2024-02-14T17:06:43.007Z,35.85
2024-02-14T17:12:05.962Z,31.05
2024-02-14T17:17:28.953Z,24.08
2024-02-14T17:22:53.059Z,19.95
2024-02-14T17:28:15.612Z,19.80
2024-02-14T17:33:38.402Z,19.65
2024-02-14T17:39:06.636Z,21.77
2024-02-14T17:44:29.491Z,21.98
2024-02-14T17:49:54.733Z,22.75
2024-02-14T17:55:20.101Z,19.73
2024-02-14T18:00:45.287Z,21.02
2024-02-14T18:06:09.858Z,24.65
2024-02-14T18:11:33.783Z,19.30
2024-02-14T18:16:56.360Z,15.15
2024-02-14T18:22:18.970Z,16.48
2024-02-14T18:27:43.001Z,14.40
2024-02-14T18:33:06.187Z,14.18
2024-02-14T18:38:32.545Z,13.23
2024-02-14T18:43:59.948Z,12.95
2024-02-14T18:49:22.848Z,12.15
2024-02-14T18:54:45.363Z,12.40
2024-02-14T19:00:12.115Z,12.10
2024-02-14T19:05:34.961Z,11.57
2024-02-14T19:10:57.951Z,12.25
2024-02-14T19:16:28.131Z,13.25
2024-02-14T19:21:51.266Z,12.40
2024-02-14T19:27:14.779Z,11.35
2024-02-14T19:32:40.755Z,12.63
2024-02-14T19:38:03.268Z,12.55
2024-02-14T19:43:32.487Z,13.57
2024-02-14T19:49:03.038Z,13.95
2024-02-14T19:54:25.837Z,13.88
2024-02-14T19:59:48.530Z,14.07
2024-02-14T20:05:15.361Z,13.23
2024-02-14T20:10:38.051Z,15.07
2024-02-14T20:16:00.994Z,13.95
2024-02-14T20:21:25.005Z,13.73
2024-02-14T20:26:47.913Z,13.80
2024-02-14T20:32:10.479Z,13.88
2024-02-14T20:37:34.252Z,14.02
2024-02-14T20:42:56.779Z,14.35
2024-02-14T20:48:19.991Z,14.70
2024-02-14T20:53:44.192Z,15.02
2024-02-14T21:04:33.102Z,15.15
2024-02-14T21:09:58.982Z,14.80
2024-02-14T21:15:21.704Z,14.82
2024-02-14T21:20:44.021Z,15.88
2024-02-14T21:26:07.959Z,16.98
2024-02-14T21:31:32.009Z,16.65
2024-02-14T21:36:56.021Z,18.05
2024-02-14T21:42:21.346Z,17.50
2024-02-14T21:47:44.583Z,17.17
2024-02-14T21:53:07.246Z,18.13
2024-02-14T21:58:31.724Z,18.02
2024-02-14T22:03:54.485Z,17.35
2024-02-14T22:09:17.534Z,17.63
2024-02-14T22:14:42.492Z,17.60
2024-02-14T22:20:07.072Z,16.45
2024-02-14T22:25:29.911Z,15.98
2024-02-14T22:30:53.714Z,18.42
2024-02-14T22:36:16.073Z,17.45
2024-02-14T22:41:40.411Z,17.08
2024-02-14T22:47:09.267Z,17.67
2024-02-14T22:52:31.945Z,17.77
2024-02-14T22:57:55.232Z,17.83
2024-02-14T23:03:19.097Z,19.98
2024-02-14T23:08:41.701Z,18.92
2024-02-14T23:14:04.306Z,16.35
2024-02-14T23:19:29.632Z,17.10
2024-02-14T23:24:52.304Z,16.73
2024-02-14T23:30:15.195Z,15.77
2024-02-14T23:35:39.932Z,17.17
2024-02-14T23:41:03.313Z,14.82
2024-02-14T23:46:25.800Z,16.85
2024-02-14T23:51:49.957Z,15.85
2024-02-14T23:57:12.619Z,14.90
